sensor_id;sensor_type;location;lat;lon;timestamp;P1;durP1;ratioP1;P2;durP2;ratioP2
20093;SDS011;10206;48.012;10.030;2023-02-11T00:00:27;53.77;;;25.43;;
20093;SDS011;10206;48.012;10.030;2023-02-11T00:02:53;49.77;;;26.37;;
20093;SDS011;10206;48.012;10.030;2023-02-11T00:05:19;45.73;;;25.07;;
20093;SDS011;10206;48.012;10.030;2023-02-11T00:07:45;50.10;;;25.80;;
20093;SDS011;10206;48.012;10.030;2023-02-11T00:10:12;54.73;;;27.50;;
20093;SDS011;10206;48.012;10.030;2023-02-11T00:12:38;51.00;;;25.83;;
20093;SDS011;10206;48.012;10.030;2023-02-11T00:15:05;54.97;;;28.20;;
20093;SDS011;10206;48.012;10.030;2023-02-11T00:17:31;50.27;;;25.90;;
20093;SDS011;10206;48.012;10.030;2023-02-11T00:19:57;52.93;;;26.23;;
20093;SDS011;10206;48.012;10.030;2023-02-11T00:22:24;51.97;;;26.97;;
20093;SDS011;10206;48.012;10.030;2023-02-11T00:24:50;55.83;;;29.07;;
20093;SDS011;10206;48.012;10.030;2023-02-11T00:27:16;55.63;;;27.17;;
20093;SDS011;10206;48.012;10.030;2023-02-11T00:29:42;56.37;;;26.80;;
20093;SDS011;10206;48.012;10.030;2023-02-11T00:32:08;52.63;;;26.20;;
20093;SDS011;10206;48.012;10.030;2023-02-11T00:34:35;53.57;;;26.63;;
20093;SDS011;10206;48.012;10.030;2023-02-11T00:37:02;51.53;;;25.57;;
20093;SDS011;10206;48.012;10.030;2023-02-11T00:39:29;49.40;;;25.77;;
20093;SDS011;10206;48.012;10.030;2023-02-11T00:41:55;49.13;;;25.00;;
20093;SDS011;10206;48.012;10.030;2023-02-11T00:44:21;50.17;;;24.70;;
20093;SDS011;10206;48.012;10.030;2023-02-11T00:46:48;48.80;;;24.90;;
20093;SDS011;10206;48.012;10.030;2023-02-11T00:49:14;51.90;;;25.83;;
20093;SDS011;10206;48.012;10.030;2023-02-11T00:51:40;50.27;;;25.33;;
20093;SDS011;10206;48.012;10.030;2023-02-11T00:54:06;50.13;;;24.97;;
20093;SDS011;10206;48.012;10.030;2023-02-11T00:56:33;46.60;;;24.03;;
20093;SDS011;10206;48.012;10.030;2023-02-11T00:58:59;52.37;;;25.83;;
20093;SDS011;10206;48.012;10.030;2023-02-11T01:01:25;51.47;;;25.47;;
20093;SDS011;10206;48.012;10.030;2023-02-11T01:03:52;46.60;;;23.97;;
20093;SDS011;10206;48.012;10.030;2023-02-11T01:06:18;51.20;;;25.57;;
20093;SDS011;10206;48.012;10.030;2023-02-11T01:08:44;46.30;;;23.73;;
20093;SDS011;10206;48.012;10.030;2023-02-11T01:11:14;45.97;;;24.23;;
20093;SDS011;10206;48.012;10.030;2023-02-11T01:13:43;47.07;;;24.00;;
20093;SDS011;10206;48.012;10.030;2023-02-11T01:16:09;55.33;;;27.00;;
20093;SDS011;10206;48.012;10.030;2023-02-11T01:18:36;61.87;;;30.40;;
20093;SDS011;10206;48.012;10.030;2023-02-11T01:21:03;75.87;;;34.17;;
20093;SDS011;10206;48.012;10.030;2023-02-11T01:23:30;75.57;;;34.17;;
20093;SDS011;10206;48.012;10.030;2023-02-11T01:25:56;78.83;;;34.87;;
20093;SDS011;10206;48.012;10.030;2023-02-11T01:28:23;83.50;;;33.90;;
20093;SDS011;10206;48.012;10.030;2023-02-11T01:30:51;102.97;;;38.40;;
20093;SDS011;10206;48.012;10.030;2023-02-11T01:33:17;103.53;;;37.47;;
20093;SDS011;10206;48.012;10.030;2023-02-11T01:35:44;122.30;;;41.50;;
20093;SDS011;10206;48.012;10.030;2023-02-11T01:38:16;123.40;;;41.50;;
20093;SDS011;10206;48.012;10.030;2023-02-11T01:40:51;109.40;;;40.43;;
20093;SDS011;10206;48.012;10.030;2023-02-11T01:43:19;112.23;;;39.07;;
20093;SDS011;10206;48.012;10.030;2023-02-11T01:48:13;105.57;;;38.20;;
20093;SDS011;10206;48.012;10.030;2023-02-11T01:50:51;107.23;;;38.97;;
20093;SDS011;10206;48.012;10.030;2023-02-11T01:53:21;105.07;;;39.73;;
20093;SDS011;10206;48.012;10.030;2023-02-11T01:56:06;104.63;;;37.37;;
20093;SDS011;10206;48.012;10.030;2023-02-11T01:58:52;105.30;;;38.13;;
20093;SDS011;10206;48.012;10.030;2023-02-11T02:01:23;98.93;;;36.60;;
20093;SDS011;10206;48.012;10.030;2023-02-11T02:03:52;96.47;;;35.67;;
20093;SDS011;10206;48.012;10.030;2023-02-11T02:06:25;89.80;;;33.23;;
20093;SDS011;10206;48.012;10.030;2023-02-11T02:08:56;84.00;;;32.07;;
20093;SDS011;10206;48.012;10.030;2023-02-11T02:11:26;84.70;;;30.90;;
20093;SDS011;10206;48.012;10.030;2023-02-11T02:13:52;70.47;;;30.40;;
20093;SDS011;10206;48.012;10.030;2023-02-11T02:16:18;69.80;;;27.70;;
20093;SDS011;10206;48.012;10.030;2023-02-11T02:22:04;57.03;;;24.80;;
20093;SDS011;10206;48.012;10.030;2023-02-11T02:27:24;56.90;;;24.43;;
20093;SDS011;10206;48.012;10.030;2023-02-11T02:38:36;43.90;;;21.10;;
20093;SDS011;10206;48.012;10.030;2023-02-11T02:41:10;40.70;;;19.30;;
20093;SDS011;10206;48.012;10.030;2023-02-11T02:43:40;42.20;;;21.10;;
20093;SDS011;10206;48.012;10.030;2023-02-11T02:48:43;41.03;;;19.37;;
20093;SDS011;10206;48.012;10.030;2023-02-11T02:51:37;35.93;;;18.83;;
20093;SDS011;10206;48.012;10.030;2023-02-11T03:02:33;41.07;;;19.30;;
20093;SDS011;10206;48.012;10.030;2023-02-11T03:05:11;37.53;;;18.40;;
20093;SDS011;10206;48.012;10.030;2023-02-11T03:12:47;34.97;;;18.80;;
20093;SDS011;10206;48.012;10.030;2023-02-11T03:15:14;38.97;;;18.93;;
20093;SDS011;10206;48.012;10.030;2023-02-11T03:17:43;38.37;;;19.13;;
20093;SDS011;10206;48.012;10.030;2023-02-11T03:20:13;37.23;;;19.03;;
20093;SDS011;10206;48.012;10.030;2023-02-11T03:22:47;44.23;;;21.10;;
20093;SDS011;10206;48.012;10.030;2023-02-11T03:25:24;37.77;;;20.60;;
20093;SDS011;10206;48.012;10.030;2023-02-11T03:28:07;37.80;;;19.43;;
20093;SDS011;10206;48.012;10.030;2023-02-11T03:30:39;44.27;;;21.07;;
20093;SDS011;10206;48.012;10.030;2023-02-11T03:33:12;38.33;;;19.80;;
20093;SDS011;10206;48.012;10.030;2023-02-11T03:35:54;39.10;;;19.67;;
20093;SDS011;10206;48.012;10.030;2023-02-11T03:38:26;37.47;;;19.37;;
20093;SDS011;10206;48.012;10.030;2023-02-11T03:40:55;34.77;;;18.37;;
20093;SDS011;10206;48.012;10.030;2023-02-11T03:43:39;39.70;;;19.73;;
20093;SDS011;10206;48.012;10.030;2023-02-11T03:46:09;40.93;;;18.97;;
20093;SDS011;10206;48.012;10.030;2023-02-11T03:48:40;43.13;;;19.97;;
20093;SDS011;10206;48.012;10.030;2023-02-11T03:51:13;37.73;;;19.27;;
20093;SDS011;10206;48.012;10.030;2023-02-11T03:53:41;33.30;;;17.83;;
20093;SDS011;10206;48.012;10.030;2023-02-11T03:56:10;33.27;;;17.23;;
20093;SDS011;10206;48.012;10.030;2023-02-11T03:58:43;32.43;;;17.70;;
20093;SDS011;10206;48.012;10.030;2023-02-11T04:01:10;34.67;;;17.47;;
20093;SDS011;10206;48.012;10.030;2023-02-11T04:03:36;36.87;;;18.27;;
20093;SDS011;10206;48.012;10.030;2023-02-11T04:06:02;33.13;;;18.07;;
20093;SDS011;10206;48.012;10.030;2023-02-11T04:08:29;32.80;;;17.43;;
20093;SDS011;10206;48.012;10.030;2023-02-11T04:10:56;33.50;;;17.53;;
20093;SDS011;10206;48.012;10.030;2023-02-11T04:13:22;31.60;;;17.23;;
20093;SDS011;10206;48.012;10.030;2023-02-11T04:15:48;34.07;;;17.63;;
20093;SDS011;10206;48.012;10.030;2023-02-11T04:18:15;34.57;;;17.33;;
20093;SDS011;10206;48.012;10.030;2023-02-11T04:20:41;34.60;;;16.87;;
20093;SDS011;10206;48.012;10.030;2023-02-11T04:23:07;33.33;;;17.10;;
20093;SDS011;10206;48.012;10.030;2023-02-11T04:25:34;33.57;;;16.47;;
20093;SDS011;10206;48.012;10.030;2023-02-11T04:28:00;32.50;;;17.03;;
20093;SDS011;10206;48.012;10.030;2023-02-11T04:30:26;33.10;;;16.87;;
20093;SDS011;10206;48.012;10.030;2023-02-11T04:32:52;29.60;;;15.50;;
20093;SDS011;10206;48.012;10.030;2023-02-11T04:35:19;31.73;;;16.20;;
20093;SDS011;10206;48.012;10.030;2023-02-11T04:37:45;26.97;;;15.10;;
20093;SDS011;10206;48.012;10.030;2023-02-11T04:40:11;30.53;;;15.23;;
20093;SDS011;10206;48.012;10.030;2023-02-11T04:42:37;28.90;;;15.00;;
20093;SDS011;10206;48.012;10.030;2023-02-11T04:45:04;28.40;;;15.40;;
20093;SDS011;10206;48.012;10.030;2023-02-11T04:47:31;28.67;;;14.63;;
20093;SDS011;10206;48.012;10.030;2023-02-11T04:49:58;27.97;;;14.40;;
20093;SDS011;10206;48.012;10.030;2023-02-11T04:52:24;28.57;;;14.53;;
20093;SDS011;10206;48.012;10.030;2023-02-11T04:54:50;26.67;;;14.63;;
20093;SDS011;10206;48.012;10.030;2023-02-11T04:57:16;26.47;;;13.73;;
20093;SDS011;10206;48.012;10.030;2023-02-11T04:59:42;25.63;;;13.87;;
20093;SDS011;10206;48.012;10.030;2023-02-11T05:02:08;27.57;;;14.03;;
20093;SDS011;10206;48.012;10.030;2023-02-11T05:04:34;27.17;;;13.80;;
20093;SDS011;10206;48.012;10.030;2023-02-11T05:07:00;28.20;;;14.47;;
20093;SDS011;10206;48.012;10.030;2023-02-11T05:09:26;27.83;;;14.57;;
20093;SDS011;10206;48.012;10.030;2023-02-11T05:11:52;28.27;;;14.80;;
20093;SDS011;10206;48.012;10.030;2023-02-11T05:14:19;27.97;;;15.30;;
20093;SDS011;10206;48.012;10.030;2023-02-11T05:16:45;31.23;;;16.43;;
20093;SDS011;10206;48.012;10.030;2023-02-11T05:19:11;30.53;;;16.43;;
20093;SDS011;10206;48.012;10.030;2023-02-11T05:21:37;27.47;;;15.10;;
20093;SDS011;10206;48.012;10.030;2023-02-11T05:24:03;25.90;;;15.43;;
20093;SDS011;10206;48.012;10.030;2023-02-11T05:26:29;28.57;;;15.47;;
20093;SDS011;10206;48.012;10.030;2023-02-11T05:28:56;28.30;;;16.10;;
20093;SDS011;10206;48.012;10.030;2023-02-11T05:31:22;28.00;;;15.97;;
20093;SDS011;10206;48.012;10.030;2023-02-11T05:33:48;27.70;;;16.37;;
20093;SDS011;10206;48.012;10.030;2023-02-11T05:36:15;29.07;;;15.37;;
20093;SDS011;10206;48.012;10.030;2023-02-11T05:38:41;29.37;;;15.57;;
20093;SDS011;10206;48.012;10.030;2023-02-11T05:41:08;30.47;;;15.60;;
20093;SDS011;10206;48.012;10.030;2023-02-11T05:43:34;30.70;;;15.83;;
20093;SDS011;10206;48.012;10.030;2023-02-11T05:46:01;35.17;;;19.40;;
20093;SDS011;10206;48.012;10.030;2023-02-11T05:48:27;35.53;;;19.03;;
20093;SDS011;10206;48.012;10.030;2023-02-11T05:50:54;30.33;;;16.93;;
20093;SDS011;10206;48.012;10.030;2023-02-11T05:53:20;32.57;;;16.93;;
20093;SDS011;10206;48.012;10.030;2023-02-11T05:55:46;29.23;;;16.47;;
20093;SDS011;10206;48.012;10.030;2023-02-11T05:58:12;30.00;;;16.43;;
20093;SDS011;10206;48.012;10.030;2023-02-11T06:00:39;28.67;;;16.13;;
20093;SDS011;10206;48.012;10.030;2023-02-11T06:03:05;29.73;;;16.83;;
20093;SDS011;10206;48.012;10.030;2023-02-11T06:05:32;29.80;;;16.40;;
20093;SDS011;10206;48.012;10.030;2023-02-11T06:07:58;30.47;;;16.20;;
20093;SDS011;10206;48.012;10.030;2023-02-11T06:10:25;27.00;;;15.77;;
20093;SDS011;10206;48.012;10.030;2023-02-11T06:12:51;32.67;;;17.30;;
20093;SDS011;10206;48.012;10.030;2023-02-11T06:15:17;38.03;;;18.83;;
20093;SDS011;10206;48.012;10.030;2023-02-11T06:17:43;32.53;;;16.93;;
20093;SDS011;10206;48.012;10.030;2023-02-11T06:20:10;37.07;;;19.37;;
20093;SDS011;10206;48.012;10.030;2023-02-11T06:22:36;34.17;;;18.27;;
20093;SDS011;10206;48.012;10.030;2023-02-11T06:25:02;39.27;;;20.83;;
20093;SDS011;10206;48.012;10.030;2023-02-11T06:27:29;42.20;;;19.63;;
20093;SDS011;10206;48.012;10.030;2023-02-11T06:29:55;38.73;;;19.37;;
20093;SDS011;10206;48.012;10.030;2023-02-11T06:32:21;36.53;;;18.87;;
20093;SDS011;10206;48.012;10.030;2023-02-11T06:34:47;38.83;;;19.57;;
20093;SDS011;10206;48.012;10.030;2023-02-11T06:37:14;41.00;;;20.03;;
20093;SDS011;10206;48.012;10.030;2023-02-11T06:39:40;38.10;;;18.37;;
20093;SDS011;10206;48.012;10.030;2023-02-11T06:42:08;36.77;;;18.57;;
20093;SDS011;10206;48.012;10.030;2023-02-11T06:44:34;34.77;;;18.10;;
20093;SDS011;10206;48.012;10.030;2023-02-11T06:47:00;40.67;;;20.60;;
20093;SDS011;10206;48.012;10.030;2023-02-11T06:49:26;46.90;;;23.53;;
20093;SDS011;10206;48.012;10.030;2023-02-11T06:51:53;44.57;;;22.80;;
20093;SDS011;10206;48.012;10.030;2023-02-11T06:54:19;47.20;;;23.73;;
20093;SDS011;10206;48.012;10.030;2023-02-11T06:56:45;49.57;;;24.83;;
20093;SDS011;10206;48.012;10.030;2023-02-11T06:59:18;52.17;;;25.97;;
20093;SDS011;10206;48.012;10.030;2023-02-11T07:01:44;67.27;;;33.20;;
20093;SDS011;10206;48.012;10.030;2023-02-11T07:04:11;67.50;;;33.57;;
20093;SDS011;10206;48.012;10.030;2023-02-11T07:06:39;56.43;;;29.13;;
20093;SDS011;10206;48.012;10.030;2023-02-11T07:09:05;46.10;;;26.10;;
20093;SDS011;10206;48.012;10.030;2023-02-11T07:11:32;39.47;;;20.90;;
20093;SDS011;10206;48.012;10.030;2023-02-11T07:14:00;35.50;;;19.13;;
20093;SDS011;10206;48.012;10.030;2023-02-11T07:16:28;39.47;;;21.17;;
20093;SDS011;10206;48.012;10.030;2023-02-11T07:18:54;33.17;;;20.77;;
20093;SDS011;10206;48.012;10.030;2023-02-11T07:21:21;40.67;;;21.27;;
20093;SDS011;10206;48.012;10.030;2023-02-11T07:23:48;38.40;;;21.80;;
20093;SDS011;10206;48.012;10.030;2023-02-11T07:26:16;41.37;;;21.87;;
20093;SDS011;10206;48.012;10.030;2023-02-11T07:28:46;43.23;;;21.60;;
20093;SDS011;10206;48.012;10.030;2023-02-11T07:31:17;43.53;;;23.20;;
20093;SDS011;10206;48.012;10.030;2023-02-11T07:33:44;44.50;;;23.33;;
20093;SDS011;10206;48.012;10.030;2023-02-11T07:36:11;37.63;;;21.23;;
20093;SDS011;10206;48.012;10.030;2023-02-11T07:38:39;32.00;;;17.80;;
20093;SDS011;10206;48.012;10.030;2023-02-11T07:41:06;39.50;;;19.40;;
20093;SDS011;10206;48.012;10.030;2023-02-11T07:43:34;39.43;;;22.87;;
20093;SDS011;10206;48.012;10.030;2023-02-11T07:46:02;39.77;;;22.33;;
20093;SDS011;10206;48.012;10.030;2023-02-11T07:48:29;41.70;;;21.90;;
20093;SDS011;10206;48.012;10.030;2023-02-11T07:51:03;44.23;;;23.63;;
20093;SDS011;10206;48.012;10.030;2023-02-11T07:53:37;41.87;;;23.73;;
20093;SDS011;10206;48.012;10.030;2023-02-11T07:56:04;33.07;;;19.87;;
20093;SDS011;10206;48.012;10.030;2023-02-11T07:58:32;38.20;;;19.90;;
20093;SDS011;10206;48.012;10.030;2023-02-11T08:01:02;31.53;;;17.83;;
20093;SDS011;10206;48.012;10.030;2023-02-11T08:03:30;31.83;;;16.97;;
20093;SDS011;10206;48.012;10.030;2023-02-11T08:05:57;28.70;;;16.43;;
20093;SDS011;10206;48.012;10.030;2023-02-11T08:08:27;32.17;;;17.87;;
20093;SDS011;10206;48.012;10.030;2023-02-11T08:10:53;33.10;;;17.77;;
20093;SDS011;10206;48.012;10.030;2023-02-11T08:13:19;28.03;;;16.50;;
20093;SDS011;10206;48.012;10.030;2023-02-11T08:15:45;26.47;;;15.13;;
20093;SDS011;10206;48.012;10.030;2023-02-11T08:18:11;25.20;;;13.80;;
20093;SDS011;10206;48.012;10.030;2023-02-11T08:20:38;28.77;;;15.83;;
20093;SDS011;10206;48.012;10.030;2023-02-11T08:23:05;31.07;;;16.67;;
20093;SDS011;10206;48.012;10.030;2023-02-11T08:25:31;26.07;;;14.03;;
20093;SDS011;10206;48.012;10.030;2023-02-11T08:27:58;25.40;;;14.23;;
20093;SDS011;10206;48.012;10.030;2023-02-11T08:30:24;26.00;;;14.10;;
20093;SDS011;10206;48.012;10.030;2023-02-11T08:32:50;26.30;;;14.87;;
20093;SDS011;10206;48.012;10.030;2023-02-11T08:35:16;26.30;;;15.00;;
20093;SDS011;10206;48.012;10.030;2023-02-11T08:37:42;26.87;;;15.03;;
20093;SDS011;10206;48.012;10.030;2023-02-11T08:40:08;35.53;;;18.03;;
20093;SDS011;10206;48.012;10.030;2023-02-11T08:42:34;33.73;;;18.63;;
20093;SDS011;10206;48.012;10.030;2023-02-11T08:45:01;48.03;;;26.03;;
20093;SDS011;10206;48.012;10.030;2023-02-11T08:47:29;32.90;;;16.77;;
20093;SDS011;10206;48.012;10.030;2023-02-11T08:49:55;23.23;;;13.97;;
20093;SDS011;10206;48.012;10.030;2023-02-11T08:52:21;27.10;;;15.47;;
20093;SDS011;10206;48.012;10.030;2023-02-11T08:54:47;37.27;;;19.37;;
20093;SDS011;10206;48.012;10.030;2023-02-11T08:57:14;34.73;;;18.03;;
20093;SDS011;10206;48.012;10.030;2023-02-11T08:59:40;32.17;;;17.17;;
20093;SDS011;10206;48.012;10.030;2023-02-11T09:02:09;30.23;;;17.30;;
20093;SDS011;10206;48.012;10.030;2023-02-11T09:04:37;33.43;;;19.37;;
20093;SDS011;10206;48.012;10.030;2023-02-11T09:07:03;33.17;;;18.33;;
20093;SDS011;10206;48.012;10.030;2023-02-11T09:09:29;29.30;;;16.00;;
20093;SDS011;10206;48.012;10.030;2023-02-11T09:11:55;32.17;;;17.73;;
20093;SDS011;10206;48.012;10.030;2023-02-11T09:14:23;44.87;;;23.40;;
20093;SDS011;10206;48.012;10.030;2023-02-11T09:16:49;54.47;;;29.07;;
20093;SDS011;10206;48.012;10.030;2023-02-11T09:19:15;41.87;;;22.57;;
20093;SDS011;10206;48.012;10.030;2023-02-11T09:21:42;37.53;;;22.77;;
20093;SDS011;10206;48.012;10.030;2023-02-11T09:24:08;35.60;;;20.70;;
20093;SDS011;10206;48.012;10.030;2023-02-11T09:26:35;34.97;;;19.87;;
20093;SDS011;10206;48.012;10.030;2023-02-11T09:29:02;38.47;;;20.57;;
20093;SDS011;10206;48.012;10.030;2023-02-11T09:31:30;34.73;;;19.00;;
20093;SDS011;10206;48.012;10.030;2023-02-11T09:34:01;35.50;;;20.37;;
20093;SDS011;10206;48.012;10.030;2023-02-11T09:36:30;39.53;;;21.83;;
20093;SDS011;10206;48.012;10.030;2023-02-11T09:38:59;36.83;;;20.83;;
20093;SDS011;10206;48.012;10.030;2023-02-11T09:44:20;37.97;;;22.47;;
20093;SDS011;10206;48.012;10.030;2023-02-11T09:46:52;37.80;;;22.33;;
20093;SDS011;10206;48.012;10.030;2023-02-11T09:49:23;39.47;;;22.13;;
20093;SDS011;10206;48.012;10.030;2023-02-11T09:52:07;43.00;;;21.53;;
20093;SDS011;10206;48.012;10.030;2023-02-11T09:54:58;37.10;;;20.83;;
20093;SDS011;10206;48.012;10.030;2023-02-11T09:57:33;44.23;;;24.17;;
20093;SDS011;10206;48.012;10.030;2023-02-11T10:00:01;44.20;;;23.50;;
20093;SDS011;10206;48.012;10.030;2023-02-11T10:02:55;38.67;;;22.70;;
20093;SDS011;10206;48.012;10.030;2023-02-11T10:05:32;38.07;;;22.50;;
20093;SDS011;10206;48.012;10.030;2023-02-11T10:08:14;37.53;;;22.77;;
20093;SDS011;10206;48.012;10.030;2023-02-11T10:10:53;38.37;;;21.90;;
20093;SDS011;10206;48.012;10.030;2023-02-11T10:16:17;38.27;;;22.33;;
20093;SDS011;10206;48.012;10.030;2023-02-11T10:24:25;36.30;;;22.63;;
20093;SDS011;10206;48.012;10.030;2023-02-11T10:26:53;37.80;;;23.00;;
20093;SDS011;10206;48.012;10.030;2023-02-11T10:29:30;35.03;;;21.50;;
20093;SDS011;10206;48.012;10.030;2023-02-11T10:32:30;37.17;;;22.03;;
20093;SDS011;10206;48.012;10.030;2023-02-11T10:35:15;37.53;;;21.83;;
20093;SDS011;10206;48.012;10.030;2023-02-11T10:37:45;37.50;;;22.47;;
20093;SDS011;10206;48.012;10.030;2023-02-11T10:40:12;38.60;;;23.00;;
20093;SDS011;10206;48.012;10.030;2023-02-11T10:42:41;43.03;;;25.23;;
20093;SDS011;10206;48.012;10.030;2023-02-11T10:45:14;37.50;;;23.10;;
20093;SDS011;10206;48.012;10.030;2023-02-11T10:47:45;34.00;;;21.33;;
20093;SDS011;10206;48.012;10.030;2023-02-11T10:50:19;37.27;;;22.13;;
20093;SDS011;10206;48.012;10.030;2023-02-11T10:55:58;32.60;;;20.20;;
20093;SDS011;10206;48.012;10.030;2023-02-11T10:58:29;38.73;;;20.43;;
20093;SDS011;10206;48.012;10.030;2023-02-11T11:01:08;37.20;;;20.83;;
20093;SDS011;10206;48.012;10.030;2023-02-11T11:03:38;35.80;;;21.20;;
20093;SDS011;10206;48.012;10.030;2023-02-11T11:06:15;33.87;;;20.73;;
20093;SDS011;10206;48.012;10.030;2023-02-11T11:08:52;37.13;;;21.97;;
20093;SDS011;10206;48.012;10.030;2023-02-11T11:11:20;36.03;;;22.03;;
20093;SDS011;10206;48.012;10.030;2023-02-11T11:14:00;33.93;;;20.70;;
20093;SDS011;10206;48.012;10.030;2023-02-11T11:16:28;32.20;;;19.93;;
20093;SDS011;10206;48.012;10.030;2023-02-11T11:21:40;34.50;;;21.37;;
20093;SDS011;10206;48.012;10.030;2023-02-11T11:24:16;32.93;;;21.77;;
20093;SDS011;10206;48.012;10.030;2023-02-11T11:26:44;33.87;;;21.30;;
20093;SDS011;10206;48.012;10.030;2023-02-11T11:29:14;33.33;;;21.17;;
20093;SDS011;10206;48.012;10.030;2023-02-11T11:32:05;36.30;;;22.13;;
20093;SDS011;10206;48.012;10.030;2023-02-11T11:34:39;34.87;;;21.37;;
20093;SDS011;10206;48.012;10.030;2023-02-11T11:37:21;36.03;;;21.40;;
20093;SDS011;10206;48.012;10.030;2023-02-11T11:39:56;34.83;;;21.73;;
20093;SDS011;10206;48.012;10.030;2023-02-11T11:42:28;34.80;;;20.73;;
20093;SDS011;10206;48.012;10.030;2023-02-11T11:45:03;34.07;;;20.60;;
20093;SDS011;10206;48.012;10.030;2023-02-11T11:50:41;33.03;;;19.60;;
20093;SDS011;10206;48.012;10.030;2023-02-11T11:53:13;29.07;;;17.97;;
20093;SDS011;10206;48.012;10.030;2023-02-11T11:55:59;31.60;;;18.33;;
20093;SDS011;10206;48.012;10.030;2023-02-11T11:58:36;31.13;;;17.63;;
20093;SDS011;10206;48.012;10.030;2023-02-11T12:04:09;33.33;;;19.13;;
20093;SDS011;10206;48.012;10.030;2023-02-11T12:06:56;31.63;;;17.83;;
20093;SDS011;10206;48.012;10.030;2023-02-11T12:23:28;31.60;;;17.87;;
20093;SDS011;10206;48.012;10.030;2023-02-11T12:26:00;34.07;;;18.73;;
20093;SDS011;10206;48.012;10.030;2023-02-11T12:37:27;30.77;;;18.93;;
20093;SDS011;10206;48.012;10.030;2023-02-11T12:40:21;34.20;;;19.20;;
20093;SDS011;10206;48.012;10.030;2023-02-11T12:57:06;26.77;;;15.53;;
20093;SDS011;10206;48.012;10.030;2023-02-11T13:02:16;25.17;;;16.10;;
20093;SDS011;10206;48.012;10.030;2023-02-11T13:04:53;29.70;;;16.20;;
20093;SDS011;10206;48.012;10.030;2023-02-11T13:07:42;28.00;;;16.70;;
20093;SDS011;10206;48.012;10.030;2023-02-11T13:12:45;29.80;;;18.07;;
20093;SDS011;10206;48.012;10.030;2023-02-11T13:15:33;32.77;;;17.70;;
20093;SDS011;10206;48.012;10.030;2023-02-11T13:23:40;29.33;;;17.53;;
20093;SDS011;10206;48.012;10.030;2023-02-11T13:32:09;28.27;;;17.53;;
20093;SDS011;10206;48.012;10.030;2023-02-11T13:40:04;31.37;;;15.43;;
20093;SDS011;10206;48.012;10.030;2023-02-11T13:42:31;26.93;;;15.07;;
20093;SDS011;10206;48.012;10.030;2023-02-11T13:45:42;32.17;;;17.80;;
20093;SDS011;10206;48.012;10.030;2023-02-11T13:48:14;32.80;;;17.73;;
20093;SDS011;10206;48.012;10.030;2023-02-11T13:50:50;28.60;;;17.07;;
20093;SDS011;10206;48.012;10.030;2023-02-11T13:53:20;28.40;;;16.43;;
20093;SDS011;10206;48.012;10.030;2023-02-11T13:55:49;25.73;;;15.73;;
20093;SDS011;10206;48.012;10.030;2023-02-11T14:00:54;29.33;;;16.00;;
20093;SDS011;10206;48.012;10.030;2023-02-11T14:03:29;27.00;;;15.30;;
20093;SDS011;10206;48.012;10.030;2023-02-11T14:06:18;25.03;;;15.00;;
20093;SDS011;10206;48.012;10.030;2023-02-11T14:11:53;26.60;;;15.17;;
20093;SDS011;10206;48.012;10.030;2023-02-11T14:17:36;25.43;;;15.00;;
20093;SDS011;10206;48.012;10.030;2023-02-11T14:20:03;26.63;;;15.57;;
20093;SDS011;10206;48.012;10.030;2023-02-11T14:22:57;31.13;;;18.33;;
20093;SDS011;10206;48.012;10.030;2023-02-11T14:25:24;27.37;;;16.07;;
20093;SDS011;10206;48.012;10.030;2023-02-11T14:30:49;29.03;;;16.67;;
20093;SDS011;10206;48.012;10.030;2023-02-11T14:42:01;27.93;;;16.43;;
20093;SDS011;10206;48.012;10.030;2023-02-11T14:44:29;27.43;;;17.40;;
20093;SDS011;10206;48.012;10.030;2023-02-11T14:46:57;27.57;;;16.03;;
20093;SDS011;10206;48.012;10.030;2023-02-11T14:49:25;28.63;;;16.83;;
20093;SDS011;10206;48.012;10.030;2023-02-11T14:51:55;28.20;;;17.10;;
20093;SDS011;10206;48.012;10.030;2023-02-11T14:54:41;27.47;;;17.13;;
20093;SDS011;10206;48.012;10.030;2023-02-11T14:57:15;28.67;;;18.17;;
20093;SDS011;10206;48.012;10.030;2023-02-11T14:59:59;27.87;;;17.47;;
20093;SDS011;10206;48.012;10.030;2023-02-11T15:02:29;33.13;;;20.27;;
20093;SDS011;10206;48.012;10.030;2023-02-11T15:07:47;37.03;;;22.80;;
20093;SDS011;10206;48.012;10.030;2023-02-11T15:10:17;37.63;;;23.50;;
20093;SDS011;10206;48.012;10.030;2023-02-11T15:13:06;31.77;;;20.53;;
20093;SDS011;10206;48.012;10.030;2023-02-11T15:15:33;35.27;;;22.17;;
20093;SDS011;10206;48.012;10.030;2023-02-11T15:18:04;34.93;;;21.13;;
20093;SDS011;10206;48.012;10.030;2023-02-11T15:20:31;34.90;;;21.87;;
20093;SDS011;10206;48.012;10.030;2023-02-11T15:23:02;34.53;;;22.37;;
20093;SDS011;10206;48.012;10.030;2023-02-11T15:25:42;35.30;;;22.07;;
20093;SDS011;10206;48.012;10.030;2023-02-11T15:28:20;35.67;;;21.97;;
20093;SDS011;10206;48.012;10.030;2023-02-11T15:30:57;38.83;;;21.97;;
20093;SDS011;10206;48.012;10.030;2023-02-11T15:33:43;44.23;;;24.70;;
20093;SDS011;10206;48.012;10.030;2023-02-11T15:36:10;37.10;;;23.57;;
20093;SDS011;10206;48.012;10.030;2023-02-11T15:38:38;39.37;;;23.57;;
20093;SDS011;10206;48.012;10.030;2023-02-11T15:41:05;39.10;;;24.93;;
20093;SDS011;10206;48.012;10.030;2023-02-11T15:43:45;35.70;;;22.63;;
20093;SDS011;10206;48.012;10.030;2023-02-11T15:46:14;40.10;;;24.67;;
20093;SDS011;10206;48.012;10.030;2023-02-11T15:48:51;47.93;;;27.73;;
20093;SDS011;10206;48.012;10.030;2023-02-11T15:53:48;64.07;;;34.57;;
20093;SDS011;10206;48.012;10.030;2023-02-11T15:56:42;39.07;;;25.13;;
20093;SDS011;10206;48.012;10.030;2023-02-11T16:01:44;40.70;;;24.83;;
20093;SDS011;10206;48.012;10.030;2023-02-11T16:04:46;44.63;;;25.93;;
20093;SDS011;10206;48.012;10.030;2023-02-11T16:07:35;42.03;;;23.83;;
20093;SDS011;10206;48.012;10.030;2023-02-11T16:10:02;43.97;;;26.17;;
20093;SDS011;10206;48.012;10.030;2023-02-11T16:12:28;45.67;;;27.07;;
20093;SDS011;10206;48.012;10.030;2023-02-11T16:14:54;43.40;;;26.07;;
20093;SDS011;10206;48.012;10.030;2023-02-11T16:17:24;41.60;;;24.50;;
20093;SDS011;10206;48.012;10.030;2023-02-11T16:19:53;38.27;;;24.47;;
20093;SDS011;10206;48.012;10.030;2023-02-11T16:22:26;38.07;;;23.20;;
20093;SDS011;10206;48.012;10.030;2023-02-11T16:24:55;38.57;;;24.00;;
20093;SDS011;10206;48.012;10.030;2023-02-11T16:29:54;41.10;;;23.37;;
20093;SDS011;10206;48.012;10.030;2023-02-11T16:32:23;36.77;;;23.33;;
20093;SDS011;10206;48.012;10.030;2023-02-11T16:34:51;36.80;;;22.73;;
20093;SDS011;10206;48.012;10.030;2023-02-11T16:37:19;49.13;;;28.03;;
20093;SDS011;10206;48.012;10.030;2023-02-11T16:39:45;44.67;;;26.17;;
20093;SDS011;10206;48.012;10.030;2023-02-11T16:42:11;48.23;;;29.07;;
20093;SDS011;10206;48.012;10.030;2023-02-11T16:44:38;50.07;;;29.13;;
20093;SDS011;10206;48.012;10.030;2023-02-11T16:47:05;57.20;;;36.03;;
20093;SDS011;10206;48.012;10.030;2023-02-11T16:49:40;45.67;;;27.63;;
20093;SDS011;10206;48.012;10.030;2023-02-11T16:52:07;59.87;;;34.27;;